Accueil
METAR-TAF:

METAR-TAF

Aéroports :

Rock Hill/York County Airport (Bryant Field)

Rock Hill, Caroline du Sud, États-Unis

latitude: 34-59-02N, longitude: 081-03-21W, altitude: 204 m

Observation

Le bulletin a été fait il y a 44 minutes, à 21:54 UTC
Vent 6 kt de nord
Température 13°C
Humidité 47%
Pression 1021 hPa
Visibilité: 16.1 km
Ciel clair

METAR: KUZA 202154Z AUTO 01006KT 10SM CLR 13/02 A3016 RMK AO2 SLP215 T01330022

Heure: 17:38 (22:38 UTC)


TAF: absent

Observations et prévisions météorologiques de plus de 4000 aéroports (messages METAR et TAF).

Les stations disponibles sont représentées par des disques jaunes et rouges sur la carte.

Passer la souris dessus pour voir le nom de la station.

Cliquer dessus pour voir les observations et prévisions météorologiques.

Pour changer de carte: cliquez sur les boutons verts avec une croix noire pour zoomer, sur le bouton vert avec un tiret pour effectuer un zoom arrière, ou sur les flèches vertes pour les cartes adjacentes.


METAR-TAF: